sensor_id;sensor_type;location;lat;lon;timestamp;P1;durP1;ratioP1;P2;durP2;ratioP2
37091;SDS011;23005;51.998;4.502;2023-03-04T00:00:19;37.45;;;5.43;;
37091;SDS011;23005;51.998;4.502;2023-03-04T00:01:39;40.85;;;5.15;;
37091;SDS011;23005;51.998;4.502;2023-03-04T00:03:01;31.00;;;5.18;;
37091;SDS011;23005;51.998;4.502;2023-03-04T00:04:22;29.45;;;4.53;;
37091;SDS011;23005;51.998;4.502;2023-03-04T00:05:43;31.50;;;4.95;;
37091;SDS011;23005;51.998;4.502;2023-03-04T00:07:03;29.63;;;4.57;;
37091;SDS011;23005;51.998;4.502;2023-03-04T00:08:24;27.85;;;4.45;;
37091;SDS011;23005;51.998;4.502;2023-03-04T00:09:45;35.85;;;5.22;;
37091;SDS011;23005;51.998;4.502;2023-03-04T00:11:06;29.35;;;4.90;;
37091;SDS011;23005;51.998;4.502;2023-03-04T00:12:26;32.42;;;5.53;;
37091;SDS011;23005;51.998;4.502;2023-03-04T00:13:47;40.10;;;4.60;;
37091;SDS011;23005;51.998;4.502;2023-03-04T00:15:08;31.77;;;4.50;;
37091;SDS011;23005;51.998;4.502;2023-03-04T00:16:29;32.35;;;4.60;;
37091;SDS011;23005;51.998;4.502;2023-03-04T00:17:50;39.90;;;4.45;;
37091;SDS011;23005;51.998;4.502;2023-03-04T00:19:12;32.22;;;4.53;;
37091;SDS011;23005;51.998;4.502;2023-03-04T00:20:32;31.35;;;4.63;;
37091;SDS011;23005;51.998;4.502;2023-03-04T00:21:53;32.40;;;4.50;;
37091;SDS011;23005;51.998;4.502;2023-03-04T00:23:16;26.15;;;3.30;;
37091;SDS011;23005;51.998;4.502;2023-03-04T00:24:36;31.10;;;4.85;;
37091;SDS011;23005;51.998;4.502;2023-03-04T00:25:57;33.45;;;5.05;;
37091;SDS011;23005;51.998;4.502;2023-03-04T00:27:17;18.92;;;4.53;;
37091;SDS011;23005;51.998;4.502;2023-03-04T00:28:38;28.15;;;3.88;;
37091;SDS011;23005;51.998;4.502;2023-03-04T00:29:59;28.42;;;3.97;;
37091;SDS011;23005;51.998;4.502;2023-03-04T00:31:20;27.25;;;4.30;;
37091;SDS011;23005;51.998;4.502;2023-03-04T00:32:40;30.35;;;4.55;;
37091;SDS011;23005;51.998;4.502;2023-03-04T00:34:01;20.17;;;3.45;;
37091;SDS011;23005;51.998;4.502;2023-03-04T00:35:23;28.43;;;4.53;;
37091;SDS011;23005;51.998;4.502;2023-03-04T00:36:44;32.03;;;4.30;;
37091;SDS011;23005;51.998;4.502;2023-03-04T00:38:05;24.60;;;3.58;;
37091;SDS011;23005;51.998;4.502;2023-03-04T00:39:25;24.75;;;3.63;;
37091;SDS011;23005;51.998;4.502;2023-03-04T00:40:46;24.13;;;3.40;;
37091;SDS011;23005;51.998;4.502;2023-03-04T00:42:07;31.90;;;3.97;;
37091;SDS011;23005;51.998;4.502;2023-03-04T00:43:28;27.60;;;4.03;;
37091;SDS011;23005;51.998;4.502;2023-03-04T00:44:48;24.58;;;3.65;;
37091;SDS011;23005;51.998;4.502;2023-03-04T00:46:09;27.73;;;3.97;;
37091;SDS011;23005;51.998;4.502;2023-03-04T00:47:30;26.40;;;4.05;;
37091;SDS011;23005;51.998;4.502;2023-03-04T00:48:51;28.65;;;4.10;;
37091;SDS011;23005;51.998;4.502;2023-03-04T00:50:11;22.13;;;3.70;;
37091;SDS011;23005;51.998;4.502;2023-03-04T00:51:33;27.67;;;3.17;;
37091;SDS011;23005;51.998;4.502;2023-03-04T00:52:54;23.63;;;3.30;;
37091;SDS011;23005;51.998;4.502;2023-03-04T00:54:15;29.17;;;3.53;;
37091;SDS011;23005;51.998;4.502;2023-03-04T00:55:35;29.70;;;3.35;;
37091;SDS011;23005;51.998;4.502;2023-03-04T00:56:56;28.13;;;3.60;;
37091;SDS011;23005;51.998;4.502;2023-03-04T00:58:17;22.42;;;3.45;;
37091;SDS011;23005;51.998;4.502;2023-03-04T00:59:38;26.50;;;3.83;;
37091;SDS011;23005;51.998;4.502;2023-03-04T01:00:59;23.80;;;3.10;;
37091;SDS011;23005;51.998;4.502;2023-03-04T01:02:19;33.95;;;4.32;;
37091;SDS011;23005;51.998;4.502;2023-03-04T01:03:40;35.67;;;3.50;;
37091;SDS011;23005;51.998;4.502;2023-03-04T01:05:01;26.67;;;3.63;;
37091;SDS011;23005;51.998;4.502;2023-03-04T01:06:22;20.30;;;4.00;;
37091;SDS011;23005;51.998;4.502;2023-03-04T01:07:44;25.40;;;3.33;;
37091;SDS011;23005;51.998;4.502;2023-03-04T01:09:04;34.63;;;3.85;;
37091;SDS011;23005;51.998;4.502;2023-03-04T01:10:25;23.65;;;3.60;;
37091;SDS011;23005;51.998;4.502;2023-03-04T01:11:45;23.13;;;3.33;;
37091;SDS011;23005;51.998;4.502;2023-03-04T01:13:06;25.33;;;3.53;;
37091;SDS011;23005;51.998;4.502;2023-03-04T01:14:27;24.77;;;4.05;;
37091;SDS011;23005;51.998;4.502;2023-03-04T01:15:48;24.25;;;3.17;;
37091;SDS011;23005;51.998;4.502;2023-03-04T01:17:09;25.80;;;3.05;;
37091;SDS011;23005;51.998;4.502;2023-03-04T01:18:30;26.58;;;3.13;;
37091;SDS011;23005;51.998;4.502;2023-03-04T01:19:50;28.67;;;3.65;;
37091;SDS011;23005;51.998;4.502;2023-03-04T01:21:11;23.70;;;3.47;;
37091;SDS011;23005;51.998;4.502;2023-03-04T01:22:32;30.73;;;3.38;;
37091;SDS011;23005;51.998;4.502;2023-03-04T01:23:54;24.40;;;2.80;;
37091;SDS011;23005;51.998;4.502;2023-03-04T01:25:14;28.80;;;4.38;;
37091;SDS011;23005;51.998;4.502;2023-03-04T01:26:35;33.58;;;3.78;;
37091;SDS011;23005;51.998;4.502;2023-03-04T01:27:56;25.63;;;3.30;;
37091;SDS011;23005;51.998;4.502;2023-03-04T01:29:16;28.70;;;2.92;;
37091;SDS011;23005;51.998;4.502;2023-03-04T01:30:37;33.20;;;3.00;;
37091;SDS011;23005;51.998;4.502;2023-03-04T01:31:58;25.60;;;3.28;;
37091;SDS011;23005;51.998;4.502;2023-03-04T01:33:19;24.77;;;3.13;;
37091;SDS011;23005;51.998;4.502;2023-03-04T01:34:39;28.92;;;3.13;;
37091;SDS011;23005;51.998;4.502;2023-03-04T01:36:00;18.40;;;2.90;;
37091;SDS011;23005;51.998;4.502;2023-03-04T01:37:20;25.63;;;2.67;;
37091;SDS011;23005;51.998;4.502;2023-03-04T01:38:41;18.40;;;3.65;;
37091;SDS011;23005;51.998;4.502;2023-03-04T01:40:04;26.08;;;3.47;;
37091;SDS011;23005;51.998;4.502;2023-03-04T01:41:25;24.60;;;3.53;;
37091;SDS011;23005;51.998;4.502;2023-03-04T01:42:46;22.48;;;3.60;;
37091;SDS011;23005;51.998;4.502;2023-03-04T01:44:07;31.50;;;3.72;;
37091;SDS011;23005;51.998;4.502;2023-03-04T01:45:28;28.60;;;3.20;;
37091;SDS011;23005;51.998;4.502;2023-03-04T01:46:51;27.67;;;3.35;;
37091;SDS011;23005;51.998;4.502;2023-03-04T01:48:12;23.05;;;3.10;;
37091;SDS011;23005;51.998;4.502;2023-03-04T01:50:54;26.15;;;3.25;;
37091;SDS011;23005;51.998;4.502;2023-03-04T01:52:15;29.40;;;3.80;;
37091;SDS011;23005;51.998;4.502;2023-03-04T01:53:36;20.80;;;2.75;;
37091;SDS011;23005;51.998;4.502;2023-03-04T01:54:56;30.88;;;3.15;;
37091;SDS011;23005;51.998;4.502;2023-03-04T01:56:21;28.95;;;3.88;;
37091;SDS011;23005;51.998;4.502;2023-03-04T01:57:43;21.83;;;3.05;;
37091;SDS011;23005;51.998;4.502;2023-03-04T02:00:29;25.63;;;3.38;;
37091;SDS011;23005;51.998;4.502;2023-03-04T02:01:51;24.67;;;3.45;;
37091;SDS011;23005;51.998;4.502;2023-03-04T02:03:13;26.52;;;3.47;;
37091;SDS011;23005;51.998;4.502;2023-03-04T02:04:35;18.88;;;3.67;;
37091;SDS011;23005;51.998;4.502;2023-03-04T02:05:55;24.50;;;5.20;;
37091;SDS011;23005;51.998;4.502;2023-03-04T02:07:16;26.25;;;3.58;;
37091;SDS011;23005;51.998;4.502;2023-03-04T02:08:37;24.85;;;4.03;;
37091;SDS011;23005;51.998;4.502;2023-03-04T02:09:58;23.08;;;3.72;;
37091;SDS011;23005;51.998;4.502;2023-03-04T02:11:20;25.55;;;3.33;;
37091;SDS011;23005;51.998;4.502;2023-03-04T02:12:41;28.70;;;3.78;;
37091;SDS011;23005;51.998;4.502;2023-03-04T02:14:01;26.25;;;3.53;;
37091;SDS011;23005;51.998;4.502;2023-03-04T02:15:22;23.10;;;3.58;;
37091;SDS011;23005;51.998;4.502;2023-03-04T02:16:44;32.53;;;3.58;;
37091;SDS011;23005;51.998;4.502;2023-03-04T02:18:06;25.42;;;3.65;;
37091;SDS011;23005;51.998;4.502;2023-03-04T02:19:36;21.92;;;3.10;;
37091;SDS011;23005;51.998;4.502;2023-03-04T02:21:04;26.95;;;3.33;;
37091;SDS011;23005;51.998;4.502;2023-03-04T02:22:30;27.02;;;2.95;;
37091;SDS011;23005;51.998;4.502;2023-03-04T02:23:54;24.17;;;2.97;;
37091;SDS011;23005;51.998;4.502;2023-03-04T02:25:21;22.23;;;3.20;;
37091;SDS011;23005;51.998;4.502;2023-03-04T02:26:46;23.90;;;3.63;;
37091;SDS011;23005;51.998;4.502;2023-03-04T02:28:06;28.70;;;3.53;;
37091;SDS011;23005;51.998;4.502;2023-03-04T02:29:27;19.65;;;3.10;;
37091;SDS011;23005;51.998;4.502;2023-03-04T02:30:48;23.05;;;3.50;;
37091;SDS011;23005;51.998;4.502;2023-03-04T02:32:09;28.58;;;3.83;;
37091;SDS011;23005;51.998;4.502;2023-03-04T02:33:30;19.25;;;2.95;;
37091;SDS011;23005;51.998;4.502;2023-03-04T02:36:12;24.13;;;3.25;;
37091;SDS011;23005;51.998;4.502;2023-03-04T02:37:33;21.08;;;2.63;;
37091;SDS011;23005;51.998;4.502;2023-03-04T02:38:54;24.10;;;3.00;;
37091;SDS011;23005;51.998;4.502;2023-03-04T02:40:21;31.70;;;3.65;;
37091;SDS011;23005;51.998;4.502;2023-03-04T02:41:43;19.48;;;2.78;;
37091;SDS011;23005;51.998;4.502;2023-03-04T02:43:07;39.08;;;4.70;;
37091;SDS011;23005;51.998;4.502;2023-03-04T02:44:29;25.88;;;3.35;;
37091;SDS011;23005;51.998;4.502;2023-03-04T02:45:51;20.98;;;2.35;;
37091;SDS011;23005;51.998;4.502;2023-03-04T02:47:12;25.23;;;3.38;;
37091;SDS011;23005;51.998;4.502;2023-03-04T02:48:34;19.90;;;2.97;;
37091;SDS011;23005;51.998;4.502;2023-03-04T02:49:55;18.63;;;3.20;;
37091;SDS011;23005;51.998;4.502;2023-03-04T02:51:15;21.80;;;2.55;;
37091;SDS011;23005;51.998;4.502;2023-03-04T02:52:36;27.30;;;3.42;;
37091;SDS011;23005;51.998;4.502;2023-03-04T02:53:58;18.45;;;3.08;;
37091;SDS011;23005;51.998;4.502;2023-03-04T02:55:19;25.48;;;3.83;;
37091;SDS011;23005;51.998;4.502;2023-03-04T02:56:43;16.42;;;2.65;;
37091;SDS011;23005;51.998;4.502;2023-03-04T02:58:06;20.73;;;3.28;;
37091;SDS011;23005;51.998;4.502;2023-03-04T02:59:26;26.75;;;3.20;;
37091;SDS011;23005;51.998;4.502;2023-03-04T03:00:47;27.30;;;3.28;;
37091;SDS011;23005;51.998;4.502;2023-03-04T03:02:09;21.25;;;2.97;;
37091;SDS011;23005;51.998;4.502;2023-03-04T03:03:29;29.55;;;3.33;;
37091;SDS011;23005;51.998;4.502;2023-03-04T03:04:50;26.57;;;3.47;;
37091;SDS011;23005;51.998;4.502;2023-03-04T03:06:11;33.33;;;3.53;;
37091;SDS011;23005;51.998;4.502;2023-03-04T03:07:32;16.92;;;2.85;;
37091;SDS011;23005;51.998;4.502;2023-03-04T03:08:53;19.83;;;2.75;;
37091;SDS011;23005;51.998;4.502;2023-03-04T03:10:13;22.88;;;3.10;;
37091;SDS011;23005;51.998;4.502;2023-03-04T03:11:34;17.35;;;2.63;;
37091;SDS011;23005;51.998;4.502;2023-03-04T03:12:56;26.90;;;3.38;;
37091;SDS011;23005;51.998;4.502;2023-03-04T03:14:17;27.17;;;3.35;;
37091;SDS011;23005;51.998;4.502;2023-03-04T03:15:37;30.53;;;3.53;;
37091;SDS011;23005;51.998;4.502;2023-03-04T03:16:58;23.05;;;3.88;;
37091;SDS011;23005;51.998;4.502;2023-03-04T03:18:19;26.40;;;3.30;;
37091;SDS011;23005;51.998;4.502;2023-03-04T03:19:39;22.40;;;3.75;;
37091;SDS011;23005;51.998;4.502;2023-03-04T03:21:00;22.35;;;3.83;;
37091;SDS011;23005;51.998;4.502;2023-03-04T03:22:21;25.42;;;3.30;;
37091;SDS011;23005;51.998;4.502;2023-03-04T03:23:42;22.23;;;2.90;;
37091;SDS011;23005;51.998;4.502;2023-03-04T03:25:03;27.27;;;2.77;;
37091;SDS011;23005;51.998;4.502;2023-03-04T03:26:26;20.98;;;2.65;;
37091;SDS011;23005;51.998;4.502;2023-03-04T03:27:46;28.45;;;3.97;;
37091;SDS011;23005;51.998;4.502;2023-03-04T03:29:09;25.73;;;3.10;;
37091;SDS011;23005;51.998;4.502;2023-03-04T03:30:29;23.88;;;3.50;;
37091;SDS011;23005;51.998;4.502;2023-03-04T03:31:50;24.23;;;3.20;;
37091;SDS011;23005;51.998;4.502;2023-03-04T03:33:11;31.70;;;3.38;;
37091;SDS011;23005;51.998;4.502;2023-03-04T03:34:31;22.60;;;2.67;;
37091;SDS011;23005;51.998;4.502;2023-03-04T03:35:53;22.95;;;2.85;;
37091;SDS011;23005;51.998;4.502;2023-03-04T03:37:13;20.15;;;3.30;;
37091;SDS011;23005;51.998;4.502;2023-03-04T03:38:34;24.30;;;3.07;;
37091;SDS011;23005;51.998;4.502;2023-03-04T03:39:55;22.55;;;3.22;;
37091;SDS011;23005;51.998;4.502;2023-03-04T03:41:15;30.10;;;3.38;;
37091;SDS011;23005;51.998;4.502;2023-03-04T03:42:36;33.50;;;2.97;;
37091;SDS011;23005;51.998;4.502;2023-03-04T03:43:57;17.23;;;2.45;;
37091;SDS011;23005;51.998;4.502;2023-03-04T03:45:19;30.58;;;3.83;;
37091;SDS011;23005;51.998;4.502;2023-03-04T03:46:40;24.17;;;2.83;;
37091;SDS011;23005;51.998;4.502;2023-03-04T03:48:00;22.35;;;3.05;;
37091;SDS011;23005;51.998;4.502;2023-03-04T03:49:21;22.58;;;3.60;;
37091;SDS011;23005;51.998;4.502;2023-03-04T03:50:42;22.17;;;3.00;;
37091;SDS011;23005;51.998;4.502;2023-03-04T03:52:03;17.10;;;2.60;;
37091;SDS011;23005;51.998;4.502;2023-03-04T03:53:23;19.40;;;3.08;;
37091;SDS011;23005;51.998;4.502;2023-03-04T03:54:44;25.73;;;3.40;;
37091;SDS011;23005;51.998;4.502;2023-03-04T03:56:05;23.95;;;3.20;;
37091;SDS011;23005;51.998;4.502;2023-03-04T03:57:26;21.20;;;3.03;;
37091;SDS011;23005;51.998;4.502;2023-03-04T03:58:47;20.30;;;2.63;;
37091;SDS011;23005;51.998;4.502;2023-03-04T04:00:08;21.40;;;3.30;;
37091;SDS011;23005;51.998;4.502;2023-03-04T04:01:31;26.75;;;3.83;;
37091;SDS011;23005;51.998;4.502;2023-03-04T04:02:52;17.00;;;2.75;;
37091;SDS011;23005;51.998;4.502;2023-03-04T04:04:14;21.55;;;2.97;;
37091;SDS011;23005;51.998;4.502;2023-03-04T04:05:34;23.83;;;2.78;;
37091;SDS011;23005;51.998;4.502;2023-03-04T04:06:55;17.30;;;2.60;;
37091;SDS011;23005;51.998;4.502;2023-03-04T04:08:16;21.73;;;3.47;;
37091;SDS011;23005;51.998;4.502;2023-03-04T04:09:37;15.52;;;2.53;;
37091;SDS011;23005;51.998;4.502;2023-03-04T04:10:58;21.58;;;2.65;;
37091;SDS011;23005;51.998;4.502;2023-03-04T04:12:19;12.20;;;2.22;;
37091;SDS011;23005;51.998;4.502;2023-03-04T04:13:39;18.60;;;2.45;;
37091;SDS011;23005;51.998;4.502;2023-03-04T04:15:00;18.85;;;2.47;;
37091;SDS011;23005;51.998;4.502;2023-03-04T04:16:21;12.52;;;1.90;;
37091;SDS011;23005;51.998;4.502;2023-03-04T04:17:43;21.98;;;2.50;;
37091;SDS011;23005;51.998;4.502;2023-03-04T04:19:04;15.50;;;1.73;;
37091;SDS011;23005;51.998;4.502;2023-03-04T04:20:24;18.38;;;2.58;;
37091;SDS011;23005;51.998;4.502;2023-03-04T04:21:45;21.85;;;3.15;;
37091;SDS011;23005;51.998;4.502;2023-03-04T04:23:06;9.88;;;2.00;;
37091;SDS011;23005;51.998;4.502;2023-03-04T04:24:27;19.42;;;2.65;;
37091;SDS011;23005;51.998;4.502;2023-03-04T04:25:48;16.58;;;2.30;;
37091;SDS011;23005;51.998;4.502;2023-03-04T04:27:09;13.15;;;2.20;;
37091;SDS011;23005;51.998;4.502;2023-03-04T04:28:30;17.48;;;2.00;;
37091;SDS011;23005;51.998;4.502;2023-03-04T04:29:51;15.85;;;2.00;;
37091;SDS011;23005;51.998;4.502;2023-03-04T04:31:11;15.02;;;1.98;;
37091;SDS011;23005;51.998;4.502;2023-03-04T04:32:32;12.90;;;2.20;;
37091;SDS011;23005;51.998;4.502;2023-03-04T04:33:54;15.23;;;2.30;;
37091;SDS011;23005;51.998;4.502;2023-03-04T04:35:15;24.77;;;2.80;;
37091;SDS011;23005;51.998;4.502;2023-03-04T04:36:36;18.25;;;2.90;;
37091;SDS011;23005;51.998;4.502;2023-03-04T04:37:56;14.77;;;2.40;;
37091;SDS011;23005;51.998;4.502;2023-03-04T04:39:17;19.10;;;3.70;;
37091;SDS011;23005;51.998;4.502;2023-03-04T04:40:38;18.73;;;2.90;;
37091;SDS011;23005;51.998;4.502;2023-03-04T04:41:59;17.50;;;2.35;;
37091;SDS011;23005;51.998;4.502;2023-03-04T04:43:20;13.70;;;2.80;;
37091;SDS011;23005;51.998;4.502;2023-03-04T04:44:41;17.73;;;2.40;;
37091;SDS011;23005;51.998;4.502;2023-03-04T04:46:01;16.05;;;2.88;;
37091;SDS011;23005;51.998;4.502;2023-03-04T04:47:22;12.00;;;2.15;;
37091;SDS011;23005;51.998;4.502;2023-03-04T04:48:43;20.63;;;2.10;;
37091;SDS011;23005;51.998;4.502;2023-03-04T04:50:06;19.25;;;2.45;;
37091;SDS011;23005;51.998;4.502;2023-03-04T04:51:27;18.40;;;2.80;;
37091;SDS011;23005;51.998;4.502;2023-03-04T04:52:47;14.87;;;2.83;;
37091;SDS011;23005;51.998;4.502;2023-03-04T04:54:09;13.25;;;2.15;;
37091;SDS011;23005;51.998;4.502;2023-03-04T04:55:30;18.92;;;3.55;;
37091;SDS011;23005;51.998;4.502;2023-03-04T04:56:51;20.33;;;2.53;;
37091;SDS011;23005;51.998;4.502;2023-03-04T04:58:11;15.27;;;3.22;;
37091;SDS011;23005;51.998;4.502;2023-03-04T04:59:32;20.23;;;2.55;;
37091;SDS011;23005;51.998;4.502;2023-03-04T05:00:55;19.40;;;2.88;;
37091;SDS011;23005;51.998;4.502;2023-03-04T05:02:59;20.48;;;2.47;;
37091;SDS011;23005;51.998;4.502;2023-03-04T05:05:16;21.92;;;2.80;;
37091;SDS011;23005;51.998;4.502;2023-03-04T05:07:21;17.85;;;3.78;;
37091;SDS011;23005;51.998;4.502;2023-03-04T05:09:46;13.45;;;2.60;;
37091;SDS011;23005;51.998;4.502;2023-03-04T05:11:07;19.25;;;2.78;;
37091;SDS011;23005;51.998;4.502;2023-03-04T05:12:28;18.92;;;2.15;;
37091;SDS011;23005;51.998;4.502;2023-03-04T05:13:48;17.23;;;2.83;;
37091;SDS011;23005;51.998;4.502;2023-03-04T05:15:10;21.98;;;2.58;;
37091;SDS011;23005;51.998;4.502;2023-03-04T05:16:30;26.70;;;3.13;;
37091;SDS011;23005;51.998;4.502;2023-03-04T05:17:51;28.23;;;2.78;;
37091;SDS011;23005;51.998;4.502;2023-03-04T05:19:12;27.48;;;2.83;;
37091;SDS011;23005;51.998;4.502;2023-03-04T05:20:34;13.10;;;2.30;;
37091;SDS011;23005;51.998;4.502;2023-03-04T05:21:55;29.73;;;2.85;;
37091;SDS011;23005;51.998;4.502;2023-03-04T05:23:16;26.77;;;3.10;;
37091;SDS011;23005;51.998;4.502;2023-03-04T05:24:37;22.80;;;3.25;;
37091;SDS011;23005;51.998;4.502;2023-03-04T05:25:58;18.95;;;2.83;;
37091;SDS011;23005;51.998;4.502;2023-03-04T05:27:18;11.38;;;2.03;;
37091;SDS011;23005;51.998;4.502;2023-03-04T05:28:39;14.93;;;2.42;;
37091;SDS011;23005;51.998;4.502;2023-03-04T05:30:00;17.08;;;2.25;;
37091;SDS011;23005;51.998;4.502;2023-03-04T05:31:21;17.25;;;2.40;;
37091;SDS011;23005;51.998;4.502;2023-03-04T05:32:41;21.20;;;3.65;;
37091;SDS011;23005;51.998;4.502;2023-03-04T05:34:03;20.02;;;2.78;;
37091;SDS011;23005;51.998;4.502;2023-03-04T05:35:23;17.90;;;2.60;;
37091;SDS011;23005;51.998;4.502;2023-03-04T05:36:49;17.80;;;2.60;;
37091;SDS011;23005;51.998;4.502;2023-03-04T05:38:10;21.23;;;2.60;;
37091;SDS011;23005;51.998;4.502;2023-03-04T05:39:31;19.40;;;2.85;;
37091;SDS011;23005;51.998;4.502;2023-03-04T05:40:55;23.10;;;3.53;;
37091;SDS011;23005;51.998;4.502;2023-03-04T05:42:16;18.30;;;2.50;;
37091;SDS011;23005;51.998;4.502;2023-03-04T05:43:37;23.05;;;3.10;;
37091;SDS011;23005;51.998;4.502;2023-03-04T05:44:58;16.20;;;2.88;;
37091;SDS011;23005;51.998;4.502;2023-03-04T05:46:19;21.98;;;2.58;;
37091;SDS011;23005;51.998;4.502;2023-03-04T05:47:39;18.30;;;2.85;;
37091;SDS011;23005;51.998;4.502;2023-03-04T05:49:00;20.90;;;3.05;;
37091;SDS011;23005;51.998;4.502;2023-03-04T05:50:22;15.63;;;2.85;;
37091;SDS011;23005;51.998;4.502;2023-03-04T05:51:43;20.45;;;2.67;;
37091;SDS011;23005;51.998;4.502;2023-03-04T05:53:05;14.50;;;2.40;;
37091;SDS011;23005;51.998;4.502;2023-03-04T05:54:25;23.50;;;3.17;;
37091;SDS011;23005;51.998;4.502;2023-03-04T05:55:46;17.92;;;2.55;;
37091;SDS011;23005;51.998;4.502;2023-03-04T05:57:07;25.10;;;3.53;;
37091;SDS011;23005;51.998;4.502;2023-03-04T05:58:28;24.48;;;3.75;;
37091;SDS011;23005;51.998;4.502;2023-03-04T05:59:49;18.25;;;2.88;;
37091;SDS011;23005;51.998;4.502;2023-03-04T06:01:10;17.45;;;3.28;;
37091;SDS011;23005;51.998;4.502;2023-03-04T06:02:31;20.55;;;2.47;;
37091;SDS011;23005;51.998;4.502;2023-03-04T06:03:52;21.98;;;2.60;;
37091;SDS011;23005;51.998;4.502;2023-03-04T06:05:13;15.80;;;2.63;;
37091;SDS011;23005;51.998;4.502;2023-03-04T06:06:34;19.60;;;3.13;;
37091;SDS011;23005;51.998;4.502;2023-03-04T06:07:54;18.02;;;2.40;;
37091;SDS011;23005;51.998;4.502;2023-03-04T06:09:17;21.65;;;2.22;;
37091;SDS011;23005;51.998;4.502;2023-03-04T06:10:38;19.88;;;3.08;;
37091;SDS011;23005;51.998;4.502;2023-03-04T06:12:00;17.90;;;3.03;;
37091;SDS011;23005;51.998;4.502;2023-03-04T06:13:21;15.30;;;2.63;;
37091;SDS011;23005;51.998;4.502;2023-03-04T06:14:41;14.88;;;2.92;;
37091;SDS011;23005;51.998;4.502;2023-03-04T06:16:02;17.85;;;2.78;;
37091;SDS011;23005;51.998;4.502;2023-03-04T06:17:23;14.40;;;2.53;;
37091;SDS011;23005;51.998;4.502;2023-03-04T06:18:44;17.30;;;2.33;;
37091;SDS011;23005;51.998;4.502;2023-03-04T06:20:05;16.38;;;2.45;;
37091;SDS011;23005;51.998;4.502;2023-03-04T06:21:27;22.73;;;2.75;;
37091;SDS011;23005;51.998;4.502;2023-03-04T06:22:47;25.75;;;2.90;;
37091;SDS011;23005;51.998;4.502;2023-03-04T06:24:08;25.58;;;3.53;;
37091;SDS011;23005;51.998;4.502;2023-03-04T06:25:30;20.15;;;3.10;;
37091;SDS011;23005;51.998;4.502;2023-03-04T06:26:51;18.58;;;2.45;;
37091;SDS011;23005;51.998;4.502;2023-03-04T06:28:12;22.52;;;3.03;;
37091;SDS011;23005;51.998;4.502;2023-03-04T06:29:32;18.40;;;3.40;;
37091;SDS011;23005;51.998;4.502;2023-03-04T06:30:54;22.08;;;2.92;;
37091;SDS011;23005;51.998;4.502;2023-03-04T06:32:15;17.08;;;2.60;;
37091;SDS011;23005;51.998;4.502;2023-03-04T06:33:36;20.58;;;3.00;;
37091;SDS011;23005;51.998;4.502;2023-03-04T06:34:57;19.58;;;3.17;;
37091;SDS011;23005;51.998;4.502;2023-03-04T06:36:18;12.95;;;2.22;;
37091;SDS011;23005;51.998;4.502;2023-03-04T06:37:38;19.10;;;2.55;;
37091;SDS011;23005;51.998;4.502;2023-03-04T06:39:00;13.55;;;2.90;;
37091;SDS011;23005;51.998;4.502;2023-03-04T06:40:21;13.57;;;2.80;;
37091;SDS011;23005;51.998;4.502;2023-03-04T06:41:43;18.27;;;2.90;;
37091;SDS011;23005;51.998;4.502;2023-03-04T06:43:04;22.17;;;2.45;;
37091;SDS011;23005;51.998;4.502;2023-03-04T06:44:25;15.57;;;2.53;;
37091;SDS011;23005;51.998;4.502;2023-03-04T06:45:49;20.20;;;3.10;;
37091;SDS011;23005;51.998;4.502;2023-03-04T06:47:10;18.08;;;2.85;;
37091;SDS011;23005;51.998;4.502;2023-03-04T06:48:31;17.00;;;2.80;;
37091;SDS011;23005;51.998;4.502;2023-03-04T06:49:52;15.90;;;2.67;;
37091;SDS011;23005;51.998;4.502;2023-03-04T06:51:12;20.10;;;3.22;;
37091;SDS011;23005;51.998;4.502;2023-03-04T06:52:33;19.33;;;2.63;;
37091;SDS011;23005;51.998;4.502;2023-03-04T06:53:54;17.15;;;3.03;;
37091;SDS011;23005;51.998;4.502;2023-03-04T06:55:15;15.73;;;2.47;;
37091;SDS011;23005;51.998;4.502;2023-03-04T06:56:35;21.58;;;2.67;;
37091;SDS011;23005;51.998;4.502;2023-03-04T06:57:57;21.83;;;2.70;;
37091;SDS011;23005;51.998;4.502;2023-03-04T06:59:18;21.80;;;3.28;;
37091;SDS011;23005;51.998;4.502;2023-03-04T07:00:39;23.90;;;3.15;;
37091;SDS011;23005;51.998;4.502;2023-03-04T07:01:59;14.30;;;3.43;;
37091;SDS011;23005;51.998;4.502;2023-03-04T07:03:20;18.20;;;2.80;;
37091;SDS011;23005;51.998;4.502;2023-03-04T07:04:41;20.10;;;2.88;;
37091;SDS011;23005;51.998;4.502;2023-03-04T07:06:02;13.73;;;2.38;;
37091;SDS011;23005;51.998;4.502;2023-03-04T07:07:23;14.13;;;2.47;;
37091;SDS011;23005;51.998;4.502;2023-03-04T07:08:43;19.08;;;2.58;;
37091;SDS011;23005;51.998;4.502;2023-03-04T07:10:04;15.25;;;2.80;;
37091;SDS011;23005;51.998;4.502;2023-03-04T07:12:46;14.07;;;2.50;;
37091;SDS011;23005;51.998;4.502;2023-03-04T07:14:08;16.67;;;2.70;;
37091;SDS011;23005;51.998;4.502;2023-03-04T07:15:29;18.73;;;3.03;;
37091;SDS011;23005;51.998;4.502;2023-03-04T07:16:50;11.38;;;2.55;;
37091;SDS011;23005;51.998;4.502;2023-03-04T07:18:11;13.32;;;2.35;;
37091;SDS011;23005;51.998;4.502;2023-03-04T07:19:32;17.88;;;2.80;;
37091;SDS011;23005;51.998;4.502;2023-03-04T07:20:53;17.95;;;2.47;;
37091;SDS011;23005;51.998;4.502;2023-03-04T07:22:13;9.85;;;1.83;;
37091;SDS011;23005;51.998;4.502;2023-03-04T07:23:35;14.77;;;2.33;;
37091;SDS011;23005;51.998;4.502;2023-03-04T07:24:55;12.88;;;2.67;;
37091;SDS011;23005;51.998;4.502;2023-03-04T07:26:16;12.85;;;2.20;;
37091;SDS011;23005;51.998;4.502;2023-03-04T07:27:37;10.55;;;1.95;;
37091;SDS011;23005;51.998;4.502;2023-03-04T07:28:58;15.85;;;2.78;;
37091;SDS011;23005;51.998;4.502;2023-03-04T07:30:20;13.40;;;2.05;;
37091;SDS011;23005;51.998;4.502;2023-03-04T07:31:41;13.27;;;2.10;;
37091;SDS011;23005;51.998;4.502;2023-03-04T07:33:02;15.38;;;2.35;;
37091;SDS011;23005;51.998;4.502;2023-03-04T07:34:23;13.33;;;2.20;;
37091;SDS011;23005;51.998;4.502;2023-03-04T07:35:43;10.80;;;1.77;;
37091;SDS011;23005;51.998;4.502;2023-03-04T07:37:04;11.73;;;2.15;;
37091;SDS011;23005;51.998;4.502;2023-03-04T07:38:25;14.25;;;2.28;;
37091;SDS011;23005;51.998;4.502;2023-03-04T07:39:45;9.23;;;1.98;;
37091;SDS011;23005;51.998;4.502;2023-03-04T07:41:06;15.05;;;2.67;;
37091;SDS011;23005;51.998;4.502;2023-03-04T07:42:27;9.10;;;1.73;;
37091;SDS011;23005;51.998;4.502;2023-03-04T07:43:48;13.73;;;2.30;;
37091;SDS011;23005;51.998;4.502;2023-03-04T07:45:09;10.32;;;2.03;;
37091;SDS011;23005;51.998;4.502;2023-03-04T07:46:32;15.23;;;2.35;;
37091;SDS011;23005;51.998;4.502;2023-03-04T07:47:53;8.07;;;1.70;;
37091;SDS011;23005;51.998;4.502;2023-03-04T07:49:14;7.47;;;1.70;;
37091;SDS011;23005;51.998;4.502;2023-03-04T07:50:35;13.23;;;2.15;;
37091;SDS011;23005;51.998;4.502;2023-03-04T07:51:55;16.55;;;1.83;;
37091;SDS011;23005;51.998;4.502;2023-03-04T07:53:16;14.85;;;1.83;;
37091;SDS011;23005;51.998;4.502;2023-03-04T07:54:37;11.25;;;2.10;;
37091;SDS011;23005;51.998;4.502;2023-03-04T07:55:58;11.45;;;1.77;;
37091;SDS011;23005;51.998;4.502;2023-03-04T07:57:21;14.32;;;1.95;;
37091;SDS011;23005;51.998;4.502;2023-03-04T07:58:42;13.43;;;2.13;;
37091;SDS011;23005;51.998;4.502;2023-03-04T08:00:04;8.55;;;1.52;;
37091;SDS011;23005;51.998;4.502;2023-03-04T08:01:26;9.20;;;1.73;;
37091;SDS011;23005;51.998;4.502;2023-03-04T08:02:49;13.32;;;2.72;;
37091;SDS011;23005;51.998;4.502;2023-03-04T08:04:10;14.23;;;2.08;;
37091;SDS011;23005;51.998;4.502;2023-03-04T08:05:30;9.98;;;2.15;;
37091;SDS011;23005;51.998;4.502;2023-03-04T08:06:51;16.08;;;1.98;;
37091;SDS011;23005;51.998;4.502;2023-03-04T08:08:12;10.77;;;1.75;;
37091;SDS011;23005;51.998;4.502;2023-03-04T08:09:36;8.85;;;1.60;;
37091;SDS011;23005;51.998;4.502;2023-03-04T08:10:56;12.48;;;2.05;;